Time;durP1;ratioP1;P1;durP2;ratioP2;P2;SDS_P1;SDS_P2;PMS_P1;PMS_P2;Temp;Humidity;BMP_temperature;BMP_pressure;BME280_temperature;BME280_humidity;BME280_pressure;Samples;Min_cycle;Max_cycle;Signal;HPM_P1;HPM_P2
2022/01/05 00:01:07;;;;;;;148.20;67.53;;;;;;;;;;4408010;32;20684;-57
2022/01/05 00:03:34;;;;;;;130.57;68.40;;;;;;;;;;4385972;32;20242;-51
2022/01/05 00:05:59;;;;;;;150.83;67.33;;;;;;;;;;4401266;32;20273;-51
2022/01/05 00:08:25;;;;;;;148.70;68.47;;;;;;;;;;4403838;32;20722;-50
2022/01/05 00:10:53;;;;;;;138.40;69.40;;;;;;;;;;4390680;32;20695;-51
2022/01/05 00:13:19;;;;;;;164.00;71.33;;;;;;;;;;4403346;32;20242;-51
2022/01/05 00:15:45;;;;;;;142.13;67.90;;;;;;;;;;4416214;32;20674;-51
2022/01/05 00:18:10;;;;;;;142.47;66.80;;;;;;;;;;4416796;32;20296;-51
2022/01/05 00:20:36;;;;;;;153.53;72.17;;;;;;;;;;4404637;32;20213;-53
2022/01/05 00:23:02;;;;;;;152.97;71.20;;;;;;;;;;4404357;32;20297;-52
2022/01/05 00:25:27;;;;;;;137.80;66.40;;;;;;;;;;4404228;32;20201;-52
2022/01/05 00:27:53;;;;;;;149.03;70.70;;;;;;;;;;4404113;32;20280;-51
2022/01/05 00:30:18;;;;;;;128.13;64.93;;;;;;;;;;4396174;32;20298;-51
2022/01/05 00:32:43;;;;;;;136.37;67.10;;;;;;;;;;4388958;32;20294;-51
2022/01/05 00:35:10;;;;;;;167.50;74.53;;;;;;;;;;4402809;32;20221;-51
2022/01/05 00:37:35;;;;;;;138.93;67.47;;;;;;;;;;4390690;32;20305;-51
2022/01/05 00:40:01;;;;;;;129.17;62.27;;;;;;;;;;4404294;32;20208;-51
2022/01/05 00:42:27;;;;;;;115.27;54.83;;;;;;;;;;4404005;32;20226;-50
2022/01/05 00:44:52;;;;;;;113.47;54.77;;;;;;;;;;4403567;32;20297;-50
2022/01/05 00:47:18;;;;;;;126.20;61.20;;;;;;;;;;4404211;32;20353;-50
2022/01/05 00:49:43;;;;;;;134.83;61.97;;;;;;;;;;4403665;32;20276;-50
2022/01/05 00:52:09;;;;;;;129.03;60.70;;;;;;;;;;4404321;32;20728;-50
2022/01/05 00:54:34;;;;;;;127.53;58.83;;;;;;;;;;4404275;32;20433;-51
2022/01/05 00:57:00;;;;;;;120.60;57.27;;;;;;;;;;4403312;32;20274;-51
2022/01/05 00:59:26;;;;;;;118.03;59.47;;;;;;;;;;4404045;32;20329;-53
2022/01/05 01:01:52;;;;;;;110.63;57.67;;;;;;;;;;4403821;32;20701;-51
2022/01/05 01:04:17;;;;;;;113.43;57.53;;;;;;;;;;4403765;32;20295;-53
2022/01/05 01:06:43;;;;;;;127.37;59.47;;;;;;;;;;4403425;32;20213;-51
2022/01/05 01:09:08;;;;;;;123.53;60.10;;;;;;;;;;4403313;32;20291;-52
2022/01/05 01:11:34;;;;;;;122.50;56.97;;;;;;;;;;4403769;32;20256;-51
2022/01/05 01:14:00;;;;;;;115.67;55.90;;;;;;;;;;4403516;32;20612;-53
2022/01/05 01:16:25;;;;;;;125.90;58.83;;;;;;;;;;4403624;32;20307;-51
2022/01/05 01:18:51;;;;;;;110.73;55.83;;;;;;;;;;4403291;32;20334;-51
2022/01/05 01:21:17;;;;;;;110.07;54.80;;;;;;;;;;4404006;32;20237;-52
2022/01/05 01:23:53;;;;;;;108.20;52.70;;;;;;;;;;4403384;32;20272;-53
2022/01/05 01:26:18;;;;;;;118.30;54.70;;;;;;;;;;4389461;32;20259;-51
2022/01/05 01:28:44;;;;;;;112.23;56.43;;;;;;;;;;4397342;32;20309;-51
2022/01/05 01:31:09;;;;;;;128.27;60.33;;;;;;;;;;4401737;32;20634;-52
2022/01/05 01:33:35;;;;;;;130.97;60.90;;;;;;;;;;4389345;32;20379;-51
2022/01/05 01:36:01;;;;;;;134.30;66.03;;;;;;;;;;4403626;32;20256;-51
2022/01/05 01:38:26;;;;;;;138.43;65.13;;;;;;;;;;4402711;32;20370;-50
2022/01/05 01:40:52;;;;;;;120.97;59.43;;;;;;;;;;4403528;32;20297;-50
2022/01/05 01:43:17;;;;;;;128.50;65.17;;;;;;;;;;4403298;32;20321;-51
2022/01/05 01:45:43;;;;;;;125.07;60.33;;;;;;;;;;4389317;32;20676;-51
2022/01/05 01:48:08;;;;;;;106.33;55.53;;;;;;;;;;4402476;32;20370;-52
2022/01/05 01:50:34;;;;;;;105.13;47.87;;;;;;;;;;4403085;32;20470;-50
2022/01/05 01:53:00;;;;;;;98.57;45.63;;;;;;;;;;4403367;32;20284;-51
2022/01/05 01:55:26;;;;;;;106.93;50.90;;;;;;;;;;4403574;32;20276;-50
2022/01/05 01:57:51;;;;;;;105.27;50.90;;;;;;;;;;4402578;32;20292;-52
2022/01/05 02:00:17;;;;;;;104.50;51.93;;;;;;;;;;4403476;32;20206;-51
2022/01/05 02:02:44;;;;;;;103.73;56.37;;;;;;;;;;4402682;32;20244;-50
2022/01/05 02:05:10;;;;;;;110.23;55.93;;;;;;;;;;4402924;32;20209;-51
2022/01/05 02:07:36;;;;;;;106.10;51.83;;;;;;;;;;4401428;32;20292;-51
2022/01/05 02:10:05;;;;;;;104.30;51.97;;;;;;;;;;4402918;32;20271;-51
2022/01/05 02:12:30;;;;;;;162.90;72.63;;;;;;;;;;4403253;32;20217;-51
2022/01/05 02:14:56;;;;;;;124.37;55.87;;;;;;;;;;4402788;32;20300;-51
2022/01/05 02:17:29;;;;;;;118.87;56.17;;;;;;;;;;4402994;32;20238;-51
2022/01/05 02:19:55;;;;;;;98.60;48.50;;;;;;;;;;4402873;32;20303;-51
2022/01/05 02:22:20;;;;;;;90.07;44.10;;;;;;;;;;4403214;32;20226;-51
2022/01/05 02:24:47;;;;;;;102.43;44.77;;;;;;;;;;4402447;32;20715;-50
2022/01/05 02:27:17;;;;;;;96.57;43.57;;;;;;;;;;4402977;32;20256;-51
2022/01/05 02:29:42;;;;;;;96.57;46.10;;;;;;;;;;4397847;32;20210;-50
2022/01/05 02:32:08;;;;;;;97.10;42.57;;;;;;;;;;4387497;32;20566;-51
2022/01/05 02:34:33;;;;;;;94.80;43.33;;;;;;;;;;4397617;32;20314;-50
2022/01/05 02:36:59;;;;;;;99.37;44.37;;;;;;;;;;4388381;32;20605;-52
2022/01/05 02:39:24;;;;;;;90.43;40.53;;;;;;;;;;4397875;32;20356;-51
2022/01/05 02:41:50;;;;;;;97.33;45.23;;;;;;;;;;4403009;32;20255;-50
2022/01/05 02:44:16;;;;;;;91.00;43.80;;;;;;;;;;4402595;32;20404;-51
2022/01/05 02:46:41;;;;;;;82.30;43.13;;;;;;;;;;4402070;32;20209;-51
2022/01/05 02:49:07;;;;;;;94.77;48.37;;;;;;;;;;4401939;32;20336;-51
2022/01/05 02:51:32;;;;;;;94.10;46.67;;;;;;;;;;4402545;32;20252;-51
2022/01/05 02:53:58;;;;;;;115.27;57.80;;;;;;;;;;4402169;32;20303;-51
2022/01/05 02:56:23;;;;;;;104.60;49.30;;;;;;;;;;4402747;32;20645;-51
2022/01/05 02:58:48;;;;;;;105.47;49.33;;;;;;;;;;4401796;32;20360;-52
2022/01/05 03:01:14;;;;;;;114.93;53.53;;;;;;;;;;4401783;32;20345;-51
2022/01/05 03:03:40;;;;;;;120.67;61.23;;;;;;;;;;4401864;32;20221;-51
2022/01/05 03:06:05;;;;;;;128.70;63.80;;;;;;;;;;4401682;32;20343;-51
2022/01/05 03:08:31;;;;;;;143.43;71.53;;;;;;;;;;4401511;32;20333;-51
2022/01/05 03:10:56;;;;;;;155.23;81.27;;;;;;;;;;4401728;32;20252;-53
2022/01/05 03:13:25;;;;;;;229.87;106.30;;;;;;;;;;4401921;32;20318;-53
2022/01/05 03:15:52;;;;;;;308.83;148.93;;;;;;;;;;4414560;32;20274;-52
2022/01/05 03:18:17;;;;;;;325.57;160.80;;;;;;;;;;4413769;32;20201;-52
2022/01/05 03:20:45;;;;;;;326.20;170.47;;;;;;;;;;4401674;32;20225;-50
2022/01/05 03:23:11;;;;;;;337.90;169.10;;;;;;;;;;4402017;32;20271;-51
2022/01/05 03:25:37;;;;;;;339.07;167.20;;;;;;;;;;4401981;32;20272;-51
2022/01/05 03:28:03;;;;;;;339.73;159.80;;;;;;;;;;4387844;32;20336;-53
2022/01/05 03:30:29;;;;;;;305.57;153.20;;;;;;;;;;4400097;32;20221;-51
2022/01/05 03:35:22;;;;;;;288.83;145.63;;;;;;;;;;4401907;32;20209;-52
2022/01/05 03:37:47;;;;;;;276.37;141.43;;;;;;;;;;4401793;32;20712;-51
2022/01/05 03:40:12;;;;;;;281.00;138.07;;;;;;;;;;4386322;32;20602;-51
2022/01/05 03:42:38;;;;;;;274.83;133.03;;;;;;;;;;4386637;32;20384;-50
2022/01/05 03:45:04;;;;;;;290.43;147.43;;;;;;;;;;4386664;32;20320;-51
2022/01/05 03:47:29;;;;;;;303.27;147.63;;;;;;;;;;4402097;32;20769;-50
2022/01/05 03:49:55;;;;;;;286.60;139.90;;;;;;;;;;4401736;32;20396;-51
2022/01/05 03:52:20;;;;;;;276.10;139.23;;;;;;;;;;4402058;32;20233;-50
2022/01/05 03:54:45;;;;;;;285.57;146.67;;;;;;;;;;4401538;32;20343;-51
2022/01/05 03:57:11;;;;;;;283.00;140.00;;;;;;;;;;4402187;32;20217;-51
2022/01/05 03:59:36;;;;;;;228.03;112.83;;;;;;;;;;4401715;32;20630;-51
2022/01/05 04:02:02;;;;;;;229.40;113.50;;;;;;;;;;4400311;32;20229;-51
2022/01/05 04:04:27;;;;;;;213.67;101.33;;;;;;;;;;4401938;32;20752;-52
2022/01/05 04:06:53;;;;;;;215.37;99.23;;;;;;;;;;4401068;32;20245;-52
2022/01/05 04:09:18;;;;;;;195.67;95.50;;;;;;;;;;4407141;32;20312;-51
2022/01/05 04:11:44;;;;;;;170.10;79.33;;;;;;;;;;4412622;32;20308;-52
2022/01/05 04:14:10;;;;;;;152.30;76.87;;;;;;;;;;4400933;32;20272;-52
2022/01/05 04:16:36;;;;;;;145.43;74.37;;;;;;;;;;4401178;32;20701;-52
2022/01/05 04:19:01;;;;;;;125.80;67.27;;;;;;;;;;4401395;32;20743;-51
2022/01/05 04:21:27;;;;;;;145.80;72.57;;;;;;;;;;4401433;32;20272;-51
2022/01/05 04:23:52;;;;;;;140.53;67.70;;;;;;;;;;4400503;32;20322;-51
2022/01/05 04:26:18;;;;;;;144.83;74.10;;;;;;;;;;4400747;32;20557;-51
2022/01/05 04:28:44;;;;;;;170.30;79.87;;;;;;;;;;4400552;32;20307;-51
2022/01/05 04:31:09;;;;;;;213.63;98.30;;;;;;;;;;4388352;32;20635;-51
2022/01/05 04:33:35;;;;;;;234.83;105.17;;;;;;;;;;4393119;32;20316;-52
2022/01/05 04:36:00;;;;;;;197.83;97.33;;;;;;;;;;4403744;32;20672;-53
2022/01/05 04:38:26;;;;;;;218.77;100.17;;;;;;;;;;4399758;32;20261;-51
2022/01/05 04:40:51;;;;;;;192.90;99.83;;;;;;;;;;4388817;32;20265;-51
2022/01/05 04:43:16;;;;;;;210.37;97.80;;;;;;;;;;4377621;32;20312;-51
2022/01/05 04:45:42;;;;;;;202.00;99.47;;;;;;;;;;4389607;32;20528;-50
2022/01/05 04:48:07;;;;;;;192.47;97.57;;;;;;;;;;4403413;32;20363;-50
2022/01/05 04:50:33;;;;;;;218.20;106.30;;;;;;;;;;4403729;32;20213;-50
2022/01/05 04:52:58;;;;;;;222.60;109.50;;;;;;;;;;4403080;32;20293;-51
2022/01/05 04:55:24;;;;;;;207.23;100.80;;;;;;;;;;4403750;32;20210;-51
2022/01/05 04:57:49;;;;;;;236.30;111.07;;;;;;;;;;4403788;32;20315;-50
2022/01/05 05:00:15;;;;;;;197.50;97.77;;;;;;;;;;4403508;32;20280;-51
2022/01/05 05:02:40;;;;;;;184.17;88.43;;;;;;;;;;4403280;32;20237;-51
2022/01/05 05:05:06;;;;;;;163.83;83.57;;;;;;;;;;4402826;32;20276;-51
2022/01/05 05:07:32;;;;;;;141.07;71.77;;;;;;;;;;4403417;32;20259;-51
2022/01/05 05:09:57;;;;;;;131.60;72.13;;;;;;;;;;4403081;32;20249;-50
2022/01/05 05:12:22;;;;;;;181.70;90.73;;;;;;;;;;4403563;32;20257;-50
2022/01/05 05:14:48;;;;;;;180.80;84.63;;;;;;;;;;4402636;32;20724;-50
2022/01/05 05:17:13;;;;;;;142.80;71.90;;;;;;;;;;4403679;32;20279;-50
2022/01/05 05:19:39;;;;;;;115.97;61.47;;;;;;;;;;4401790;32;20338;-51
2022/01/05 05:22:04;;;;;;;119.60;62.70;;;;;;;;;;4403385;32;20352;-52
2022/01/05 05:24:30;;;;;;;135.77;64.67;;;;;;;;;;4392195;32;20344;-52
2022/01/05 05:26:55;;;;;;;127.77;67.40;;;;;;;;;;4388234;32;20332;-52
2022/01/05 05:29:20;;;;;;;127.10;66.00;;;;;;;;;;4395540;32;20293;-52
2022/01/05 05:31:46;;;;;;;127.10;68.13;;;;;;;;;;4386704;32;20510;-52
2022/01/05 05:34:11;;;;;;;123.47;64.03;;;;;;;;;;4396216;32;20304;-52
2022/01/05 05:36:37;;;;;;;136.73;65.57;;;;;;;;;;4403416;32;20229;-52
2022/01/05 05:39:02;;;;;;;121.77;57.93;;;;;;;;;;4403074;32;20284;-52
2022/01/05 05:41:28;;;;;;;135.67;60.40;;;;;;;;;;4403155;32;20222;-51
2022/01/05 05:43:53;;;;;;;145.23;65.43;;;;;;;;;;4402670;32;20327;-51
2022/01/05 05:46:19;;;;;;;137.33;70.70;;;;;;;;;;4402645;32;20807;-51
2022/01/05 05:48:45;;;;;;;133.53;68.47;;;;;;;;;;4402606;32;20370;-53
2022/01/05 05:51:10;;;;;;;145.53;80.20;;;;;;;;;;4403173;32;20520;-52
2022/01/05 05:53:36;;;;;;;164.50;89.57;;;;;;;;;;4402497;32;20276;-52
2022/01/05 05:56:02;;;;;;;172.40;89.40;;;;;;;;;;4402756;32;20229;-52
2022/01/05 05:58:27;;;;;;;156.47;80.10;;;;;;;;;;4402646;32;20299;-54
2022/01/05 06:00:53;;;;;;;155.47;84.03;;;;;;;;;;4402304;32;20445;-51
2022/01/05 06:03:18;;;;;;;191.17;97.47;;;;;;;;;;4399094;32;20236;-52
2022/01/05 06:05:43;;;;;;;187.10;89.97;;;;;;;;;;4401997;32;20240;-52
2022/01/05 06:08:09;;;;;;;189.47;103.63;;;;;;;;;;4401898;32;20338;-52
2022/01/05 06:10:34;;;;;;;279.83;135.03;;;;;;;;;;4402778;32;20338;-52
2022/01/05 06:13:00;;;;;;;286.03;148.00;;;;;;;;;;4402483;32;20647;-52
2022/01/05 06:15:25;;;;;;;292.00;159.10;;;;;;;;;;4411373;32;20303;-53
2022/01/05 06:17:51;;;;;;;310.43;160.90;;;;;;;;;;4418035;32;20641;-52
2022/01/05 06:20:17;;;;;;;296.43;151.53;;;;;;;;;;4396022;32;20258;-53
2022/01/05 06:22:42;;;;;;;289.77;149.67;;;;;;;;;;4399275;32;20311;-52
2022/01/05 06:25:10;;;;;;;266.20;126.83;;;;;;;;;;4398093;32;20296;-51
2022/01/05 06:27:35;;;;;;;251.73;122.50;;;;;;;;;;4400541;32;20412;-50
2022/01/05 06:30:06;;;;;;;210.10;107.67;;;;;;;;;;4395280;32;20326;-52
2022/01/05 06:32:33;;;;;;;204.33;102.53;;;;;;;;;;4400168;32;20218;-51
2022/01/05 06:34:59;;;;;;;194.20;98.03;;;;;;;;;;4401937;32;20283;-52
2022/01/05 06:37:24;;;;;;;184.83;85.97;;;;;;;;;;4394590;32;20781;-52
2022/01/05 06:39:50;;;;;;;156.80;75.93;;;;;;;;;;4402268;32;20292;-51
2022/01/05 06:42:15;;;;;;;148.27;69.73;;;;;;;;;;4402615;32;20384;-51
2022/01/05 06:44:41;;;;;;;192.10;78.97;;;;;;;;;;4400749;32;20299;-50
2022/01/05 06:47:06;;;;;;;181.87;81.20;;;;;;;;;;4397736;32;20406;-50
2022/01/05 06:49:32;;;;;;;202.40;88.07;;;;;;;;;;4398902;32;20668;-52
2022/01/05 06:51:57;;;;;;;188.57;87.13;;;;;;;;;;4400630;32;20335;-52
2022/01/05 06:54:23;;;;;;;191.27;84.33;;;;;;;;;;4399728;32;20311;-52
2022/01/05 06:56:48;;;;;;;164.60;75.33;;;;;;;;;;4390289;32;20337;-51
2022/01/05 06:59:14;;;;;;;154.63;73.73;;;;;;;;;;4391831;32;20943;-53
2022/01/05 07:01:40;;;;;;;173.13;77.37;;;;;;;;;;4390578;32;20237;-52
2022/01/05 07:04:05;;;;;;;151.37;77.47;;;;;;;;;;4396472;32;20618;-50
2022/01/05 07:06:31;;;;;;;162.47;79.73;;;;;;;;;;4386471;32;20322;-51
2022/01/05 07:08:56;;;;;;;165.57;82.33;;;;;;;;;;4390025;32;20736;-53
2022/01/05 07:11:21;;;;;;;179.53;88.07;;;;;;;;;;4398848;32;20306;-52
2022/01/05 07:13:47;;;;;;;185.20;95.17;;;;;;;;;;4398866;32;20376;-51
2022/01/05 07:16:12;;;;;;;220.20;111.67;;;;;;;;;;4401705;32;20248;-52
2022/01/05 07:18:38;;;;;;;218.70;112.40;;;;;;;;;;4388481;32;20343;-54
2022/01/05 07:21:03;;;;;;;217.67;114.57;;;;;;;;;;4402614;32;20217;-51
2022/01/05 07:23:29;;;;;;;246.93;126.83;;;;;;;;;;4402372;32;20312;-52
2022/01/05 07:25:54;;;;;;;227.87;123.67;;;;;;;;;;4402480;32;20296;-51
2022/01/05 07:28:19;;;;;;;225.57;122.20;;;;;;;;;;4401793;32;20641;-51
2022/01/05 07:30:45;;;;;;;219.47;118.10;;;;;;;;;;4377484;32;20229;-51
2022/01/05 07:33:10;;;;;;;209.97;109.57;;;;;;;;;;4388807;32;20362;-52
2022/01/05 07:35:36;;;;;;;199.67;98.57;;;;;;;;;;4401930;32;20556;-52
2022/01/05 07:38:01;;;;;;;212.83;109.70;;;;;;;;;;4387695;32;20379;-52
2022/01/05 07:40:27;;;;;;;214.67;112.13;;;;;;;;;;4402308;32;20636;-51
2022/01/05 07:42:53;;;;;;;194.70;109.10;;;;;;;;;;4401892;32;20284;-51
2022/01/05 07:45:18;;;;;;;199.67;105.07;;;;;;;;;;4402236;32;20697;-52
2022/01/05 07:47:44;;;;;;;192.27;102.40;;;;;;;;;;4388330;32;20383;-52
2022/01/05 07:50:14;;;;;;;190.67;103.83;;;;;;;;;;4401390;32;20259;-52
2022/01/05 07:52:41;;;;;;;186.50;97.73;;;;;;;;;;4401780;32;20670;-52
2022/01/05 07:55:07;;;;;;;209.03;102.17;;;;;;;;;;4401180;32;20260;-51
2022/01/05 07:57:34;;;;;;;191.37;107.10;;;;;;;;;;4394604;32;20245;-53
2022/01/05 07:59:59;;;;;;;167.67;88.97;;;;;;;;;;4393432;32;20241;-51
2022/01/05 08:02:25;;;;;;;161.63;91.03;;;;;;;;;;4393058;32;20882;-51
2022/01/05 08:04:50;;;;;;;158.93;90.40;;;;;;;;;;4382064;32;20749;-51
2022/01/05 08:07:16;;;;;;;172.90;94.97;;;;;;;;;;4395210;32;20350;-51
2022/01/05 08:09:41;;;;;;;175.27;93.43;;;;;;;;;;4402864;32;20357;-52
2022/01/05 08:12:07;;;;;;;132.67;78.17;;;;;;;;;;4404377;32;20553;-51
2022/01/05 08:14:33;;;;;;;143.60;82.20;;;;;;;;;;4404667;32;20676;-51
2022/01/05 08:16:58;;;;;;;159.33;87.07;;;;;;;;;;4404258;32;20264;-52
2022/01/05 08:19:24;;;;;;;168.90;97.10;;;;;;;;;;4393281;32;20289;-53
2022/01/05 08:21:49;;;;;;;171.63;93.93;;;;;;;;;;4387486;32;20312;-51
2022/01/05 08:24:15;;;;;;;181.57;93.70;;;;;;;;;;4396046;32;20568;-50
2022/01/05 08:26:40;;;;;;;154.87;85.97;;;;;;;;;;4402208;32;20304;-52
2022/01/05 08:29:06;;;;;;;178.67;98.13;;;;;;;;;;4401217;32;20339;-52
2022/01/05 08:31:31;;;;;;;179.70;95.57;;;;;;;;;;4386821;32;20233;-52
2022/01/05 08:33:59;;;;;;;174.53;94.37;;;;;;;;;;4393963;32;20400;-51
2022/01/05 08:36:25;;;;;;;159.90;88.07;;;;;;;;;;4404119;32;20257;-52
2022/01/05 08:38:51;;;;;;;195.20;102.63;;;;;;;;;;4403587;32;20287;-51
2022/01/05 08:41:16;;;;;;;455.27;232.03;;;;;;;;;;4414977;32;20418;-51
2022/01/05 08:43:41;;;;;;;240.30;118.37;;;;;;;;;;4403306;32;20280;-51
2022/01/05 08:46:07;;;;;;;200.20;112.73;;;;;;;;;;4402887;32;20669;-51
2022/01/05 08:48:32;;;;;;;155.83;84.67;;;;;;;;;;4403448;32;20201;-51
2022/01/05 08:50:59;;;;;;;124.97;73.47;;;;;;;;;;4403114;32;20248;-51
2022/01/05 08:53:24;;;;;;;132.87;77.10;;;;;;;;;;4403773;32;20327;-53
2022/01/05 08:55:50;;;;;;;158.50;83.37;;;;;;;;;;4402266;32;20637;-52
2022/01/05 08:58:18;;;;;;;187.60;91.63;;;;;;;;;;4403118;32;20292;-50
2022/01/05 09:00:43;;;;;;;160.50;87.77;;;;;;;;;;4402924;32;20225;-51
2022/01/05 09:03:13;;;;;;;155.30;78.93;;;;;;;;;;4403188;32;20290;-52
2022/01/05 09:05:39;;;;;;;162.00;84.80;;;;;;;;;;4389830;32;20242;-51
2022/01/05 09:08:05;;;;;;;169.30;88.83;;;;;;;;;;4403496;32;20289;-53
2022/01/05 09:10:31;;;;;;;128.67;72.10;;;;;;;;;;4403262;32;20685;-51
2022/01/05 09:12:59;;;;;;;130.53;73.83;;;;;;;;;;4401995;32;20284;-51
2022/01/05 09:15:26;;;;;;;147.27;77.67;;;;;;;;;;4411096;32;20593;-50
2022/01/05 09:17:52;;;;;;;117.70;67.50;;;;;;;;;;4416405;32;20251;-50
2022/01/05 09:20:17;;;;;;;130.83;69.50;;;;;;;;;;4403103;32;20217;-51
2022/01/05 09:22:43;;;;;;;121.20;70.07;;;;;;;;;;4401362;32;20712;-50
2022/01/05 09:25:10;;;;;;;111.23;57.67;;;;;;;;;;4401466;32;20284;-50
2022/01/05 09:27:36;;;;;;;101.53;56.73;;;;;;;;;;4401494;32;20407;-50
2022/01/05 09:30:04;;;;;;;88.10;52.30;;;;;;;;;;4394517;32;20295;-50
2022/01/05 09:32:29;;;;;;;92.97;50.80;;;;;;;;;;4386170;32;20260;-51
2022/01/05 09:34:55;;;;;;;85.77;48.67;;;;;;;;;;4398795;32;20320;-51
2022/01/05 09:37:27;;;;;;;100.03;51.10;;;;;;;;;;4395423;32;20230;-51
2022/01/05 09:42:39;;;;;;;94.03;51.07;;;;;;;;;;4400715;32;20459;-52
2022/01/05 09:45:20;;;;;;;81.87;46.77;;;;;;;;;;4400075;32;20499;-52
2022/01/05 09:48:14;;;;;;;78.43;45.60;;;;;;;;;;4388470;32;20248;-52
2022/01/05 09:50:48;;;;;;;99.47;51.73;;;;;;;;;;4397576;32;20247;-54
2022/01/05 09:53:14;;;;;;;114.70;57.37;;;;;;;;;;4395343;32;20268;-52
2022/01/05 09:55:40;;;;;;;86.37;47.00;;;;;;;;;;4413692;32;20258;-52
2022/01/05 09:58:06;;;;;;;79.97;45.20;;;;;;;;;;4399119;32;20364;-51
2022/01/05 10:00:31;;;;;;;103.97;52.47;;;;;;;;;;4389213;32;20528;-51
2022/01/05 10:02:57;;;;;;;100.10;52.07;;;;;;;;;;4395552;32;20258;-50
2022/01/05 10:05:24;;;;;;;76.17;41.63;;;;;;;;;;4398159;32;20249;-51
2022/01/05 10:07:50;;;;;;;73.23;40.20;;;;;;;;;;4400022;32;20672;-51
2022/01/05 10:10:15;;;;;;;77.97;42.70;;;;;;;;;;4402075;32;20467;-50
2022/01/05 10:12:41;;;;;;;67.67;41.13;;;;;;;;;;4399526;32;20437;-51
2022/01/05 10:15:06;;;;;;;115.47;54.00;;;;;;;;;;4397055;32;20217;-52
2022/01/05 10:17:34;;;;;;;76.07;40.77;;;;;;;;;;4398311;32;20260;-52
2022/01/05 10:20:07;;;;;;;66.73;41.60;;;;;;;;;;4397005;32;20311;-52
2022/01/05 10:22:37;;;;;;;70.70;44.40;;;;;;;;;;4399975;32;20340;-51
2022/01/05 10:25:29;;;;;;;67.70;43.07;;;;;;;;;;4397735;32;20667;-52
2022/01/05 10:27:56;;;;;;;83.90;45.57;;;;;;;;;;4395999;32;20226;-51
2022/01/05 10:30:36;;;;;;;76.87;45.40;;;;;;;;;;4401129;32;20312;-51
2022/01/05 10:33:03;;;;;;;72.33;41.40;;;;;;;;;;4401613;32;20217;-51
2022/01/05 10:35:29;;;;;;;68.23;39.63;;;;;;;;;;4401933;32;20241;-50
2022/01/05 10:37:57;;;;;;;62.60;39.27;;;;;;;;;;4401875;32;20672;-51
2022/01/05 10:40:23;;;;;;;67.43;39.27;;;;;;;;;;4402039;32;20228;-51
2022/01/05 10:42:54;;;;;;;98.47;51.67;;;;;;;;;;4401658;32;20277;-51
2022/01/05 10:45:37;;;;;;;86.63;44.90;;;;;;;;;;4398905;32;20232;-51
2022/01/05 10:48:06;;;;;;;80.23;43.73;;;;;;;;;;4409903;32;20384;-51
2022/01/05 10:50:32;;;;;;;81.47;44.50;;;;;;;;;;4400744;32;20275;-60
2022/01/05 10:52:58;;;;;;;60.43;39.80;;;;;;;;;;4401042;32;20279;-52
2022/01/05 10:55:26;;;;;;;160.40;80.00;;;;;;;;;;4400412;32;20599;-52
2022/01/05 10:58:06;;;;;;;179.67;85.50;;;;;;;;;;4400111;32;20234;-52
2022/01/05 11:00:37;;;;;;;75.67;44.13;;;;;;;;;;4400596;32;20675;-51
2022/01/05 11:03:25;;;;;;;81.63;40.90;;;;;;;;;;4401002;32;20327;-51
2022/01/05 11:06:11;;;;;;;60.43;32.80;;;;;;;;;;4400981;32;20331;-52
2022/01/05 11:08:55;;;;;;;56.63;32.57;;;;;;;;;;4399026;32;20209;-51
2022/01/05 11:11:36;;;;;;;63.80;32.00;;;;;;;;;;4398737;32;20632;-52
2022/01/05 11:14:05;;;;;;;55.70;35.63;;;;;;;;;;4399933;32;20201;-52
2022/01/05 11:16:31;;;;;;;57.33;36.60;;;;;;;;;;4387783;32;20249;-52
2022/01/05 11:19:17;;;;;;;65.27;40.07;;;;;;;;;;4400367;32;20236;-53
2022/01/05 11:22:03;;;;;;;68.87;44.93;;;;;;;;;;4399674;32;20289;-51
2022/01/05 11:24:35;;;;;;;68.47;43.17;;;;;;;;;;4398084;32;20349;-52
2022/01/05 11:27:03;;;;;;;91.23;49.70;;;;;;;;;;4399216;32;20280;-52
2022/01/05 11:29:29;;;;;;;248.07;136.07;;;;;;;;;;4398388;32;20263;-52
2022/01/05 11:31:56;;;;;;;76.47;49.47;;;;;;;;;;4388383;32;20222;-52
2022/01/05 11:34:22;;;;;;;100.90;53.40;;;;;;;;;;4396554;32;20261;-53
2022/01/05 11:36:48;;;;;;;76.20;44.57;;;;;;;;;;4398050;32;20217;-53
2022/01/05 11:39:14;;;;;;;68.37;41.37;;;;;;;;;;4397417;32;20239;-53
2022/01/05 11:41:44;;;;;;;53.43;36.07;;;;;;;;;;4393064;32;20455;-52
2022/01/05 11:44:10;;;;;;;56.37;33.90;;;;;;;;;;4393803;32;20343;-53
2022/01/05 11:46:36;;;;;;;57.70;34.87;;;;;;;;;;4391160;32;20336;-52
2022/01/05 11:49:07;;;;;;;75.77;43.90;;;;;;;;;;4399420;32;20623;-52
2022/01/05 11:51:41;;;;;;;47.03;29.67;;;;;;;;;;4398618;32;20244;-52
2022/01/05 11:54:19;;;;;;;53.50;28.20;;;;;;;;;;4401159;32;20363;-53
2022/01/05 11:56:54;;;;;;;42.57;27.23;;;;;;;;;;4386417;32;20261;-53
2022/01/05 11:59:24;;;;;;;49.07;25.53;;;;;;;;;;4395270;32;20312;-53
2022/01/05 12:01:59;;;;;;;38.13;23.47;;;;;;;;;;4397693;32;20673;-52
2022/01/05 12:04:25;;;;;;;34.10;22.43;;;;;;;;;;4392358;32;20626;-51
2022/01/05 12:06:50;;;;;;;40.80;23.27;;;;;;;;;;4397941;32;20275;-52
2022/01/05 12:09:20;;;;;;;51.00;31.57;;;;;;;;;;4391697;32;20336;-51
2022/01/05 12:11:46;;;;;;;47.93;27.60;;;;;;;;;;4396686;32;20296;-51
2022/01/05 12:14:20;;;;;;;51.93;30.33;;;;;;;;;;4402643;32;20429;-52
2022/01/05 12:19:27;;;;;;;45.30;29.47;;;;;;;;;;4406258;32;20858;-53
2022/01/05 12:21:55;;;;;;;50.57;30.67;;;;;;;;;;4400913;32;20625;-53
2022/01/05 12:24:22;;;;;;;51.40;30.27;;;;;;;;;;4372078;32;20325;-53
2022/01/05 12:27:17;;;;;;;47.17;26.57;;;;;;;;;;4398787;32;20271;-53
2022/01/05 12:29:43;;;;;;;52.80;26.20;;;;;;;;;;4396440;32;20588;-53
2022/01/05 12:32:09;;;;;;;36.60;23.53;;;;;;;;;;4400720;32;20253;-53
2022/01/05 12:34:54;;;;;;;44.70;27.03;;;;;;;;;;4400983;32;20288;-58
2022/01/05 12:38:07;;;;;;;38.00;24.27;;;;;;;;;;4387547;32;20311;-53
2022/01/05 12:40:46;;;;;;;46.57;26.53;;;;;;;;;;4393584;32;20328;-53
2022/01/05 12:43:12;;;;;;;39.47;23.20;;;;;;;;;;4400775;32;20197;-53
2022/01/05 12:45:56;;;;;;;56.47;30.90;;;;;;;;;;4401124;32;20263;-53
2022/01/05 12:48:39;;;;;;;68.53;42.50;;;;;;;;;;4386660;32;20218;-54
2022/01/05 12:51:11;;;;;;;33.87;21.13;;;;;;;;;;4400938;32;20265;-52
2022/01/05 12:53:49;;;;;;;45.73;26.00;;;;;;;;;;4403627;32;20299;-55
2022/01/05 12:56:38;;;;;;;37.63;23.33;;;;;;;;;;4403895;32;20324;-53
2022/01/05 12:59:06;;;;;;;59.57;38.40;;;;;;;;;;4402265;32;20392;-54
2022/01/05 13:01:33;;;;;;;196.97;113.70;;;;;;;;;;4403036;32;20783;-53
2022/01/05 13:04:00;;;;;;;43.07;24.27;;;;;;;;;;4403346;32;20684;-53
2022/01/05 13:06:28;;;;;;;23.60;13.60;;;;;;;;;;4403781;32;20345;-53
2022/01/05 13:08:58;;;;;;;29.27;16.90;;;;;;;;;;4402932;32;20233;-53
2022/01/05 13:11:50;;;;;;;21.67;14.97;;;;;;;;;;4403482;32;20252;-52
2022/01/05 13:14:24;;;;;;;29.80;15.67;;;;;;;;;;4402504;32;20271;-53
2022/01/05 13:16:52;;;;;;;31.93;20.17;;;;;;;;;;4403449;32;20575;-52
2022/01/05 13:19:25;;;;;;;37.30;21.03;;;;;;;;;;4402676;32;20272;-52
2022/01/05 13:21:52;;;;;;;48.17;20.27;;;;;;;;;;4403348;32;20308;-52
2022/01/05 13:24:18;;;;;;;45.93;25.97;;;;;;;;;;4403094;32;20213;-54
2022/01/05 13:27:04;;;;;;;43.00;22.90;;;;;;;;;;4403082;32;20249;-53
2022/01/05 13:29:30;;;;;;;46.83;26.13;;;;;;;;;;4399794;32;20241;-53
2022/01/05 13:31:57;;;;;;;45.20;26.87;;;;;;;;;;4401478;32;20320;-52
2022/01/05 13:34:29;;;;;;;48.03;30.07;;;;;;;;;;4403139;32;20499;-53
2022/01/05 13:36:55;;;;;;;58.13;30.73;;;;;;;;;;4389319;32;20241;-52
2022/01/05 13:39:39;;;;;;;54.80;32.50;;;;;;;;;;4403290;32;20300;-53
2022/01/05 13:42:06;;;;;;;48.63;27.77;;;;;;;;;;4403216;32;20222;-52
2022/01/05 13:44:32;;;;;;;62.20;35.10;;;;;;;;;;4402791;32;20383;-53
2022/01/05 13:46:58;;;;;;;76.27;38.37;;;;;;;;;;4402968;32;20263;-53
2022/01/05 13:49:25;;;;;;;67.47;37.73;;;;;;;;;;4403469;32;20292;-54
2022/01/05 13:52:09;;;;;;;82.33;46.23;;;;;;;;;;4402529;32;20280;-53
2022/01/05 13:54:42;;;;;;;78.53;42.83;;;;;;;;;;4402985;32;20770;-53
2022/01/05 13:57:25;;;;;;;64.83;39.93;;;;;;;;;;4403100;32;20375;-52
2022/01/05 13:59:58;;;;;;;60.40;35.60;;;;;;;;;;4402674;32;20606;-53
2022/01/05 14:02:23;;;;;;;52.90;33.63;;;;;;;;;;4402992;32;20317;-53
2022/01/05 14:04:52;;;;;;;61.90;36.27;;;;;;;;;;4401472;32;20457;-53
2022/01/05 14:07:21;;;;;;;62.80;37.43;;;;;;;;;;4402870;32;20258;-53
2022/01/05 14:10:04;;;;;;;51.63;31.27;;;;;;;;;;4402905;32;20245;-53
2022/01/05 14:12:32;;;;;;;44.80;27.57;;;;;;;;;;4402439;32;20222;-53
2022/01/05 14:14:58;;;;;;;46.10;30.37;;;;;;;;;;4402287;32;20228;-54
2022/01/05 14:17:24;;;;;;;54.20;28.67;;;;;;;;;;4402170;32;20298;-53